Atlanta, Georgia
Traffic Map
Current Weather Conditions
Atlanta, Georgia
Broken Clouds
Broken Clouds
24°
Feels Like: 24°
Wind Chill: 24° Ceiling: 25000
Heat Index: 24° Visibility: 10mi
Dew Point: 10° Wind: 13mph
Humidity: 41% Direction: 250° (WSW)
Pressure: 29.8in Gusts: 22mph
Raw Report DataKATL 241952Z 25011G19KT 10SM FEW055 SCT200 BKN250 24/10 A2980 RMK AO2 SLP084 CB DSNT E-SE T02390100
Traffic Incident Summary
Active as of:
Severity:
Category:
InformationThere was an issue retrieving the traffic information for this location. Please try a different location or try again shortly.
Advertisements
Track Severe Weather on mobile